Time;durP1;ratioP1;P1;durP2;ratioP2;P2;SDS_P1;SDS_P2;PMS_P1;PMS_P2;Temp;Humidity;BMP_temperature;BMP_pressure;BME280_temperature;BME280_humidity;BME280_pressure;Samples;Min_cycle;Max_cycle;Signal;HPM_P1;HPM_P2
2024/04/05 00:02:52;;;;;;;;;;;11.30;99.90;;;;;;6740575;88;20167;-79
2024/04/05 00:12:52;;;;;;;;;;;11.60;99.90;;;;;;6740703;88;20147;-79
2024/04/05 00:22:53;;;;;;;;;;;11.80;99.90;;;;;;6740247;88;20105;-78
2024/04/05 00:32:53;;;;;;;;;;;12.10;99.90;;;;;;6739866;88;20057;-79
2024/04/05 00:42:54;;;;;;;;;;;12.40;99.90;;;;;;6740551;88;20069;-79
2024/04/05 00:52:54;;;;;;;;;;;12.70;99.90;;;;;;6740005;88;20081;-79
2024/04/05 01:02:55;;;;;;;;;;;12.70;99.90;;;;;;6740488;88;20171;-80
2024/04/05 01:13:03;;;;;;;;;;;12.70;99.90;;;;;;6739565;88;20156;-79
2024/04/05 01:23:04;;;;;;;;;;;12.40;99.90;;;;;;6739826;88;20055;-80
2024/04/05 01:33:05;;;;;;;;;;;12.20;99.90;;;;;;6739874;88;20053;-79
2024/04/05 01:43:05;;;;;;;;;;;11.90;99.90;;;;;;6745001;88;20576;-79
2024/04/05 01:53:06;;;;;;;;;;;11.90;99.90;;;;;;6748644;88;20094;-78
2024/04/05 02:03:06;;;;;;;;;;;12.30;99.90;;;;;;6682348;77;20154;-78
2024/04/05 02:13:07;;;;;;;;;;;12.50;99.90;;;;;;6666933;88;20156;-78
2024/04/05 02:23:07;;;;;;;;;;;12.60;99.90;;;;;;6673478;88;20118;-78
2024/04/05 02:33:08;;;;;;;;;;;12.60;99.90;;;;;;6680220;89;20072;-77
2024/04/05 02:43:08;;;;;;;;;;;12.40;99.90;;;;;;6667244;89;20105;-77
2024/04/05 02:53:08;;;;;;;;;;;11.90;99.90;;;;;;6663348;89;20077;-77
2024/04/05 03:03:09;;;;;;;;;;;11.50;99.90;;;;;;6665863;89;20130;-77
2024/04/05 03:13:10;;;;;;;;;;;11.20;99.90;;;;;;6669970;88;20069;-77
2024/04/05 03:23:13;;;;;;;;;;;11.30;99.90;;;;;;6669353;88;20065;-77
2024/04/05 03:33:13;;;;;;;;;;;11.40;99.90;;;;;;6669362;89;20077;-77
2024/04/05 03:43:14;;;;;;;;;;;11.80;99.90;;;;;;6669108;88;20073;-77
2024/04/05 03:53:14;;;;;;;;;;;11.70;99.90;;;;;;6668345;89;20622;-77
2024/04/05 04:03:14;;;;;;;;;;;11.60;99.90;;;;;;6664703;89;20178;-77
2024/04/05 04:13:15;;;;;;;;;;;11.60;99.90;;;;;;6669020;89;20552;-77
2024/04/05 04:23:16;;;;;;;;;;;11.60;99.90;;;;;;6667927;89;20343;-77
2024/04/05 04:33:16;;;;;;;;;;;11.70;99.90;;;;;;6672918;89;20130;-78
2024/04/05 04:43:17;;;;;;;;;;;11.80;99.90;;;;;;6665972;89;20103;-77
2024/04/05 04:53:17;;;;;;;;;;;11.80;99.90;;;;;;6673628;88;20068;-77
2024/04/05 05:03:18;;;;;;;;;;;11.80;99.90;;;;;;6671871;89;20061;-78
2024/04/05 05:13:18;;;;;;;;;;;11.80;99.90;;;;;;6671702;89;20139;-78
2024/04/05 05:23:19;;;;;;;;;;;12.00;99.90;;;;;;6670946;89;20082;-79
2024/04/05 05:33:19;;;;;;;;;;;12.20;99.90;;;;;;6670984;89;20070;-79
2024/04/05 05:43:20;;;;;;;;;;;12.00;99.90;;;;;;6672909;88;20069;-78
2024/04/05 05:53:21;;;;;;;;;;;12.00;99.90;;;;;;6672390;89;20054;-78
2024/04/05 06:03:21;;;;;;;;;;;12.10;99.90;;;;;;6674795;89;20065;-78
2024/04/05 06:13:22;;;;;;;;;;;12.30;99.90;;;;;;6673561;89;20079;-78
2024/04/05 06:23:23;;;;;;;;;;;12.40;99.90;;;;;;6673672;89;20447;-78
2024/04/05 06:33:24;;;;;;;;;;;12.80;99.90;;;;;;6674070;89;20057;-79
2024/04/05 06:43:25;;;;;;;;;;;13.00;99.90;;;;;;6671899;88;20656;-79
2024/04/05 06:53:28;;;;;;;;;;;13.10;99.90;;;;;;6673428;89;20057;-79
2024/04/05 07:03:28;;;;;;;;;;;13.40;99.90;;;;;;6670984;89;20125;-78
2024/04/05 07:13:30;;;;;;;;;;;13.60;99.90;;;;;;6669363;89;20228;-78
2024/04/05 07:23:31;;;;;;;;;;;13.80;99.90;;;;;;6664657;89;20081;-78
2024/04/05 07:33:31;;;;;;;;;;;13.90;99.90;;;;;;6670042;89;20057;-76
2024/04/05 07:43:32;;;;;;;;;;;14.00;99.90;;;;;;6666302;89;20069;-79
2024/04/05 07:53:33;;;;;;;;;;;14.20;99.90;;;;;;6669045;89;20496;-76
2024/04/05 08:03:34;;;;;;;;;;;14.40;99.90;;;;;;6672980;89;20158;-78
2024/04/05 08:13:34;;;;;;;;;;;14.70;99.90;;;;;;6678822;89;20124;-79
2024/04/05 08:23:34;;;;;;;;;;;14.80;99.90;;;;;;6674535;88;20518;-78
2024/04/05 08:33:35;;;;;;;;;;;14.90;99.90;;;;;;6682575;89;20057;-79
2024/04/05 08:43:43;;;;;;;;;;;14.90;99.90;;;;;;6676800;89;20082;-78
2024/04/05 08:53:43;;;;;;;;;;;15.10;99.90;;;;;;6670994;89;20060;-78
2024/04/05 09:03:46;;;;;;;;;;;15.40;99.90;;;;;;6674375;89;20078;-78
2024/04/05 09:13:56;;;;;;;;;;;15.70;99.90;;;;;;6674958;89;20623;-78
2024/04/05 09:23:57;;;;;;;;;;;15.70;99.90;;;;;;6673289;89;20361;-78
2024/04/05 09:34:08;;;;;;;;;;;15.90;99.90;;;;;;6674900;89;20093;-78
2024/04/05 09:44:08;;;;;;;;;;;16.20;99.90;;;;;;6673499;88;20200;-78
2024/04/05 09:54:10;;;;;;;;;;;16.30;99.90;;;;;;6673392;87;20135;-79
2024/04/05 10:04:11;;;;;;;;;;;16.50;99.90;;;;;;6674914;89;20064;-79
2024/04/05 10:14:21;;;;;;;;;;;16.70;99.90;;;;;;6679071;89;20078;-79
2024/04/05 10:24:21;;;;;;;;;;;16.90;99.90;;;;;;6668135;89;20069;-79
2024/04/05 10:34:24;;;;;;;;;;;17.10;99.90;;;;;;6671667;89;20060;-79
2024/04/05 10:44:26;;;;;;;;;;;17.10;99.90;;;;;;6672443;89;20076;-79
2024/04/05 10:54:27;;;;;;;;;;;17.50;99.90;;;;;;6675211;89;20152;-80
2024/04/05 11:04:27;;;;;;;;;;;17.80;99.90;;;;;;6665412;89;20458;-79
2024/04/05 11:14:28;;;;;;;;;;;18.20;99.90;;;;;;6674445;89;20086;-79
2024/04/05 11:24:28;;;;;;;;;;;18.30;99.90;;;;;;6679970;89;20053;-79
2024/04/05 11:34:29;;;;;;;;;;;18.40;99.90;;;;;;6672450;88;20053;-80
2024/04/05 11:44:29;;;;;;;;;;;18.40;99.90;;;;;;6672667;89;20177;-79
2024/04/05 11:54:30;;;;;;;;;;;18.40;99.90;;;;;;6674304;89;20066;-79
2024/04/05 12:04:31;;;;;;;;;;;18.40;99.90;;;;;;6677673;89;20088;-77
2024/04/05 12:14:33;;;;;;;;;;;18.50;99.90;;;;;;6681062;89;20166;-79
2024/04/05 12:24:34;;;;;;;;;;;18.70;99.90;;;;;;6675366;89;20072;-78
2024/04/05 12:34:34;;;;;;;;;;;19.00;99.90;;;;;;6678699;89;20139;-78
2024/04/05 12:44:35;;;;;;;;;;;19.00;99.90;;;;;;6676943;88;20151;-79
2024/04/05 12:54:36;;;;;;;;;;;19.20;99.90;;;;;;6676303;89;20069;-79
2024/04/05 13:04:37;;;;;;;;;;;19.30;99.90;;;;;;6672763;88;20164;-80
2024/04/05 13:14:37;;;;;;;;;;;19.40;99.90;;;;;;6676221;89;20085;-79
2024/04/05 13:24:38;;;;;;;;;;;19.40;99.90;;;;;;6675398;89;20179;-79
2024/04/05 13:34:38;;;;;;;;;;;20.00;99.90;;;;;;6673670;88;20151;-79
2024/04/05 13:44:39;;;;;;;;;;;20.10;99.90;;;;;;6675202;89;20077;-79
2024/04/05 13:54:39;;;;;;;;;;;19.90;99.90;;;;;;6673404;89;20172;-80
2024/04/05 14:15:21;;;;;;;;;;;20.00;99.90;;;;;;6652997;89;20078;-79
2024/04/05 14:25:22;;;;;;;;;;;20.60;99.90;;;;;;6653896;89;20107;-79
2024/04/05 14:35:22;;;;;;;;;;;21.10;99.90;;;;;;6659849;89;20096;-79
2024/04/05 14:45:23;;;;;;;;;;;20.40;99.90;;;;;;6652938;89;20083;-79
2024/04/05 14:55:25;;;;;;;;;;;20.10;99.90;;;;;;6669349;88;20146;-79
2024/04/05 15:05:25;;;;;;;;;;;19.70;99.90;;;;;;6651333;89;20073;-80
2024/04/05 15:15:26;;;;;;;;;;;19.40;99.90;;;;;;6675789;88;20061;-80
2024/04/05 15:25:27;;;;;;;;;;;19.30;99.90;;;;;;6655478;89;20108;-79
2024/04/05 15:35:27;;;;;;;;;;;19.30;99.90;;;;;;6659731;89;20070;-80
2024/04/05 15:45:28;;;;;;;;;;;19.50;99.90;;;;;;6655616;89;20153;-79
2024/04/05 15:55:28;;;;;;;;;;;19.30;99.90;;;;;;6654541;89;20104;-79
2024/04/05 16:05:29;;;;;;;;;;;19.40;99.90;;;;;;6653542;88;20132;-79
2024/04/05 16:15:31;;;;;;;;;;;19.40;99.90;;;;;;6652602;89;20503;-79
2024/04/05 16:25:31;;;;;;;;;;;19.50;99.90;;;;;;6649889;89;20063;-78
2024/04/05 16:35:31;;;;;;;;;;;19.30;99.90;;;;;;6650896;88;20108;-79
2024/04/05 16:45:32;;;;;;;;;;;19.20;99.90;;;;;;6657278;89;20079;-78
2024/04/05 16:55:32;;;;;;;;;;;19.20;99.90;;;;;;6664799;88;20284;-79
2024/04/05 17:05:33;;;;;;;;;;;19.00;99.90;;;;;;6660834;89;20101;-80
2024/04/05 17:15:33;;;;;;;;;;;18.80;99.90;;;;;;6654119;89;20704;-78
2024/04/05 17:25:34;;;;;;;;;;;18.80;99.90;;;;;;6662034;88;20160;-79
2024/04/05 17:35:34;;;;;;;;;;;18.60;99.90;;;;;;6663842;88;20073;-79
2024/04/05 17:45:35;;;;;;;;;;;18.40;99.90;;;;;;6659580;89;20079;-79
2024/04/05 17:55:35;;;;;;;;;;;18.30;99.90;;;;;;6663393;88;20053;-79
2024/04/05 18:05:36;;;;;;;;;;;18.10;99.90;;;;;;6677756;88;20053;-79
2024/04/05 18:15:36;;;;;;;;;;;17.90;99.90;;;;;;6657203;89;20078;-80
2024/04/05 18:25:38;;;;;;;;;;;17.80;99.90;;;;;;6659288;89;20111;-80
2024/04/05 18:35:39;;;;;;;;;;;17.60;99.90;;;;;;6656442;89;20057;-79
2024/04/05 18:45:41;;;;;;;;;;;17.50;99.90;;;;;;6659143;88;20058;-79
2024/04/05 18:55:44;;;;;;;;;;;17.50;99.90;;;;;;6655089;89;20074;-80
2024/04/05 19:05:44;;;;;;;;;;;17.30;99.90;;;;;;6649635;89;20216;-79
2024/04/05 19:15:47;;;;;;;;;;;17.20;99.90;;;;;;6653340;89;20062;-79
2024/04/05 19:25:47;;;;;;;;;;;17.10;99.90;;;;;;6655146;88;20147;-79
2024/04/05 19:35:50;;;;;;;;;;;17.10;99.90;;;;;;6654272;89;20069;-79
2024/04/05 19:45:51;;;;;;;;;;;17.30;99.90;;;;;;6665447;88;20069;-79
2024/04/05 19:55:52;;;;;;;;;;;17.20;99.90;;;;;;6662514;88;20070;-79
2024/04/05 20:16:34;;;;;;;;;;;17.40;99.90;;;;;;6625768;89;20172;-79
2024/04/05 20:26:34;;;;;;;;;;;17.40;99.90;;;;;;6624880;89;20070;-79
2024/04/05 20:36:35;;;;;;;;;;;17.50;99.90;;;;;;6619728;89;20080;-77
2024/04/05 20:46:35;;;;;;;;;;;17.30;99.90;;;;;;6621635;89;20684;-80
2024/04/05 20:56:36;;;;;;;;;;;17.40;99.90;;;;;;6622272;89;20087;-79
2024/04/05 21:06:36;;;;;;;;;;;17.40;99.90;;;;;;6623933;88;20165;-80
2024/04/05 21:16:37;;;;;;;;;;;17.30;99.90;;;;;;6620266;89;20510;-79
2024/04/05 21:26:37;;;;;;;;;;;17.10;99.90;;;;;;6617338;89;20078;-79
2024/04/05 21:36:38;;;;;;;;;;;17.10;99.90;;;;;;6615882;89;20550;-78
2024/04/05 21:46:38;;;;;;;;;;;16.80;99.90;;;;;;6618520;89;20090;-78
2024/04/05 21:56:40;;;;;;;;;;;16.70;99.90;;;;;;6621867;89;20075;-79
2024/04/05 22:06:41;;;;;;;;;;;16.40;99.90;;;;;;6621697;89;20075;-80
2024/04/05 22:16:41;;;;;;;;;;;16.10;99.90;;;;;;6619010;89;20143;-80
2024/04/05 22:26:42;;;;;;;;;;;16.00;99.90;;;;;;6608631;89;20136;-78
2024/04/05 22:36:42;;;;;;;;;;;15.90;99.90;;;;;;6602480;89;20051;-79
2024/04/05 22:46:43;;;;;;;;;;;15.90;99.90;;;;;;6601445;89;20106;-79
2024/04/05 22:56:43;;;;;;;;;;;15.80;99.90;;;;;;6601069;89;20552;-79
2024/04/05 23:06:44;;;;;;;;;;;15.60;99.90;;;;;;6603015;89;20059;-78
2024/04/05 23:16:44;;;;;;;;;;;15.30;99.90;;;;;;6619355;89;20076;-78
2024/04/05 23:26:46;;;;;;;;;;;15.10;99.90;;;;;;6623178;89;20122;-78
2024/04/05 23:36:47;;;;;;;;;;;15.00;99.90;;;;;;6624370;88;20066;-79
2024/04/05 23:46:47;;;;;;;;;;;15.00;99.90;;;;;;6638021;88;20170;-76
2024/04/05 23:56:50;;;;;;;;;;;15.00;99.90;;;;;;6621172;89;20550;-77
